Time;durP1;ratioP1;P1;durP2;ratioP2;P2;SDS_P1;SDS_P2;PMS_P1;PMS_P2;Temp;Humidity;BMP_temperature;BMP_pressure;BME280_temperature;BME280_humidity;BME280_pressure;Samples;Min_cycle;Max_cycle;Signal;HPM_P1;HPM_P2
2022/05/17 00:00:52;;;;;;;16.73;10.50;;;;;;;13.10;100.00;68228.94;5026629;28;20041;-79
2022/05/17 00:03:18;;;;;;;15.48;10.25;;;;;;;13.06;100.00;68224.38;5023391;28;20045;-79
2022/05/17 00:05:44;;;;;;;16.23;9.98;;;;;;;13.00;100.00;68218.13;5025727;28;20049;-79
2022/05/17 00:08:10;;;;;;;13.70;10.13;;;;;;;12.98;100.00;68215.31;5026858;28;20514;-79
2022/05/17 00:10:36;;;;;;;17.58;10.63;;;;;;;12.99;100.00;68216.44;5023397;28;20126;-80
2022/05/17 00:13:01;;;;;;;15.20;10.30;;;;;;;12.99;100.00;68221.78;5021498;28;20049;-79
2022/05/17 00:15:26;;;;;;;18.60;11.23;;;;;;;12.93;100.00;68212.28;5024658;28;20033;-80
2022/05/17 00:17:55;;;;;;;17.85;10.35;;;;;;;12.88;100.00;68204.50;5026598;28;20071;-80
2022/05/17 00:20:22;;;;;;;17.77;10.02;;;;;;;12.86;100.00;68202.22;5026452;28;20029;-80
2022/05/17 00:22:48;;;;;;;16.67;10.48;;;;;;;12.86;100.00;68202.22;5026934;28;20045;-80
2022/05/17 00:25:15;;;;;;;17.67;9.80;;;;;;;12.84;100.00;68202.63;5023876;28;20042;-79
2022/05/17 00:27:40;;;;;;;15.75;9.95;;;;;;;12.82;100.00;68198.25;5026591;28;20081;-79
2022/05/17 00:30:08;;;;;;;17.83;10.68;;;;;;;12.79;100.00;68194.81;5022378;28;20109;-79
2022/05/17 00:32:33;;;;;;;19.38;11.00;;;;;;;12.79;100.00;68194.81;5021599;28;20059;-79
2022/05/17 00:34:58;;;;;;;15.88;10.68;;;;;;;;;;5023474;28;20036;-79
2022/05/17 00:37:24;;;;;;;18.20;11.00;;;;;;;;;;5038046;28;20494;-79
2022/05/17 00:39:49;;;;;;;15.15;10.45;;;;;;;12.77;100.00;68195.22;5022760;28;20327;-79
2022/05/17 00:42:15;;;;;;;16.02;11.45;;;;;;;12.75;100.00;68184.94;5029351;28;20096;-80
2022/05/17 00:44:43;;;;;;;18.52;11.68;;;;;;;12.69;100.00;68182.88;5027805;28;20494;-79
2022/05/17 00:47:11;;;;;;;16.98;11.68;;;;;;;12.67;100.00;68185.97;5029253;28;20045;-79
2022/05/17 00:49:44;;;;;;;20.38;12.25;;;;;;;12.61;100.00;68177.03;5030030;28;20604;-79
2022/05/17 00:52:36;;;;;;;18.83;11.95;;;;;;;12.59;100.00;68174.75;5028505;28;20045;-79
2022/05/17 00:55:07;;;;;;;16.48;12.02;;;;;;;12.57;100.00;68170.41;5008436;28;20038;-79
2022/05/17 00:57:57;;;;;;;17.30;12.43;;;;;;;12.52;100.00;68167.38;5026209;28;20241;-80
2022/05/17 01:00:25;;;;;;;19.38;12.02;;;;;;;12.52;100.00;68166.81;5027195;28;20053;-80
2022/05/17 01:02:56;;;;;;;16.80;11.60;;;;;;;12.48;100.00;68162.25;5028621;28;20073;-80
2022/05/17 01:05:24;;;;;;;17.83;11.23;;;;;;;12.47;100.00;68158.47;5028875;28;20438;-80
2022/05/17 01:07:56;;;;;;;19.83;11.20;;;;;;;12.44;100.00;68155.06;5026002;28;20120;-79
2022/05/17 01:10:23;;;;;;;14.95;11.65;;;;;;;12.37;100.00;68153.56;5028483;28;20099;-79
2022/05/17 01:14:57;;;;;;;18.60;11.40;;;;;;;12.41;100.00;68154.88;5028918;28;20048;-79
2022/05/17 01:15:34;;;;;;;17.95;11.82;;;;;;;12.37;100.00;68148.25;5023422;28;20395;-79
2022/05/17 01:18:01;;;;;;;18.25;11.73;;;;;;;12.34;100.00;68150.16;5022758;28;20077;-79
2022/05/17 01:20:26;;;;;;;17.05;12.27;;;;;;;12.31;100.00;68146.19;5025803;28;20060;-79
2022/05/17 01:22:52;;;;;;;18.60;12.40;;;;;;;12.32;100.00;68147.88;5024850;28;20054;-79
2022/05/17 01:25:18;;;;;;;20.00;12.73;;;;;;;12.29;100.00;68138.56;5026144;28;20056;-80
2022/05/17 01:27:53;;;;;;;17.25;11.13;;;;;;;12.28;100.00;68138.00;5024463;28;20128;-79
2022/05/17 01:30:24;;;;;;;16.98;11.65;;;;;;;12.27;100.00;68141.63;5024458;28;20048;-79
2022/05/17 01:32:50;;;;;;;18.05;11.85;;;;;;;12.26;100.00;68130.41;5023629;28;20042;-80
2022/05/17 01:35:15;;;;;;;20.08;11.93;;;;;;;;;;5027055;28;20041;-79
2022/05/17 01:37:40;;;;;;;20.38;11.30;;;;;;;12.25;100.00;68139.34;5024481;28;20080;-79
2022/05/17 01:40:06;;;;;;;18.63;11.48;;;;;;;12.17;100.00;68125.50;5025710;28;20121;-79
2022/05/17 01:42:33;;;;;;;20.70;12.75;;;;;;;12.18;100.00;68126.63;5021276;28;20605;-79
2022/05/17 01:44:58;;;;;;;19.70;12.73;;;;;;;12.19;100.00;68127.78;5022805;28;20037;-80
2022/05/17 01:47:23;;;;;;;19.75;13.25;;;;;;;12.19;100.00;68133.66;5022991;28;20045;-80
2022/05/17 01:49:49;;;;;;;21.33;12.32;;;;;;;12.18;100.00;68126.63;5027427;28;20037;-79
2022/05/17 01:52:14;;;;;;;23.85;13.73;;;;;;;12.21;100.00;68129.47;5026080;28;20091;-79
2022/05/17 01:54:39;;;;;;;18.05;12.35;;;;;;;12.22;100.00;68133.28;5024393;28;20049;-80
2022/05/17 01:57:05;;;;;;;19.40;11.27;;;;;;;12.19;100.00;68127.78;5026419;28;20056;-80
2022/05/17 01:59:32;;;;;;;15.52;12.15;;;;;;;12.23;100.00;68137.66;5023358;28;20037;-79
2022/05/17 02:01:58;;;;;;;17.98;12.18;;;;;;;12.26;100.00;68141.06;5027241;28;20060;-80
2022/05/17 02:04:23;;;;;;;21.40;11.93;;;;;;;12.29;100.00;68141.25;5042136;28;20040;-80
2022/05/17 02:06:48;;;;;;;20.83;13.07;;;;;;;12.29;100.00;68139.16;5023503;28;20045;-79
2022/05/17 02:09:14;;;;;;;19.25;12.98;;;;;;;12.30;100.00;68142.38;5027432;28;20037;-79
2022/05/17 02:11:40;;;;;;;20.50;12.35;;;;;;;12.32;100.00;68142.56;5023730;28;20495;-79
2022/05/17 02:14:06;;;;;;;20.85;12.25;;;;;;;12.30;100.00;68145.59;5023150;28;20048;-79
2022/05/17 02:16:37;;;;;;;23.65;14.45;;;;;;;12.29;100.00;68138.56;5023448;28;20544;-79
2022/05/17 02:19:03;;;;;;;18.98;13.63;;;;;;;;;;5025267;28;20033;-79
2022/05/17 02:21:28;;;;;;;23.77;13.45;;;;;;;;;;5024452;28;20050;-79
2022/05/17 02:23:53;;;;;;;22.57;13.60;;;;;;;12.24;100.00;68132.88;5028558;28;20446;-79
2022/05/17 02:26:19;;;;;;;21.98;12.80;;;;;;;12.18;100.00;68129.31;5023463;28;20272;-79
2022/05/17 02:28:44;;;;;;;24.92;13.82;;;;;;;12.16;100.00;68124.94;5020526;28;20117;-79
2022/05/17 02:31:15;;;;;;;19.02;12.23;;;;;;;12.13;100.00;68123.63;5027731;28;20517;-79
2022/05/17 02:33:40;;;;;;;23.52;13.60;;;;;;;12.09;100.00;68121.75;5028369;28;20391;-79
2022/05/17 02:36:06;;;;;;;21.38;13.10;;;;;;;12.11;100.00;68121.34;5029953;28;20041;-79
2022/05/17 02:38:31;;;;;;;20.85;12.55;;;;;;;12.16;100.00;68127.03;5027545;28;20046;-79
2022/05/17 02:40:56;;;;;;;17.23;12.90;;;;;;;12.18;100.00;68131.97;5027310;28;20049;-79
2022/05/17 02:43:22;;;;;;;18.15;12.95;;;;;;;12.18;100.00;68126.63;5024052;28;20119;-79
2022/05/17 02:45:48;;;;;;;18.90;12.77;;;;;;;12.22;100.00;68130.63;5025235;28;20046;-80
2022/05/17 02:48:13;;;;;;;21.63;13.15;;;;;;;12.24;100.00;68138.22;5028008;28;20554;-79
2022/05/17 02:50:39;;;;;;;21.55;13.23;;;;;;;12.30;100.00;68145.59;5025687;28;20044;-79
2022/05/17 02:53:04;;;;;;;19.90;13.80;;;;;;;12.33;100.00;68146.34;5028538;28;20040;-79
2022/05/17 02:55:30;;;;;;;18.13;12.65;;;;;;;12.35;100.00;68145.97;5023035;28;20057;-79
2022/05/17 02:57:56;;;;;;;19.73;13.40;;;;;;;12.36;100.00;68147.09;5026702;28;20068;-80
2022/05/17 03:00:22;;;;;;;21.40;13.23;;;;;;;12.35;100.00;68148.63;5026229;28;20038;-80
2022/05/17 03:02:47;;;;;;;21.65;14.40;;;;;;;;;;5041704;28;20049;-79
2022/05/17 03:05:13;;;;;;;20.37;13.37;;;;;;;12.35;100.00;68151.28;5026083;28;20033;-79
2022/05/17 03:07:38;;;;;;;19.45;12.82;;;;;;;;;;5026110;28;20288;-79
2022/05/17 03:10:04;;;;;;;24.70;13.60;;;;;;;12.37;100.00;68150.91;5026261;28;20107;-79
2022/05/17 03:12:30;;;;;;;19.48;12.38;;;;;;;12.36;100.00;68152.44;5026892;28;20041;-79
2022/05/17 03:14:55;;;;;;;18.80;12.52;;;;;;;;;;5026794;28;20048;-79
2022/05/17 03:17:21;;;;;;;18.92;12.32;;;;;;;12.32;100.00;68142.56;5026661;28;20036;-79
2022/05/17 03:19:46;;;;;;;18.95;12.20;;;;;;;12.36;100.00;68147.09;5025419;28;20468;-79
2022/05/17 03:22:12;;;;;;;19.63;12.82;;;;;;;12.35;100.00;68151.28;5020420;28;20490;-79
2022/05/17 03:24:37;;;;;;;17.67;12.52;;;;;;;12.36;100.00;68147.09;5026686;28;20049;-79
2022/05/17 03:27:04;;;;;;;20.75;12.88;;;;;;;12.40;100.00;68151.09;5024867;28;20046;-79
2022/05/17 03:29:30;;;;;;;19.33;13.30;;;;;;;12.46;100.00;68160.56;5026735;28;20314;-79
2022/05/17 03:31:56;;;;;;;20.02;12.45;;;;;;;12.49;100.00;68163.41;5022474;28;20041;-79
2022/05/17 03:34:21;;;;;;;20.70;14.45;;;;;;;12.51;100.00;68165.66;5024831;28;20112;-79
2022/05/17 03:36:47;;;;;;;21.48;13.32;;;;;;;12.50;100.00;68161.88;5023548;28;20030;-79
2022/05/17 03:39:12;;;;;;;22.05;13.70;;;;;;;12.59;100.00;68172.66;5019695;28;20557;-79
2022/05/17 03:41:38;;;;;;;23.10;15.40;;;;;;;12.64;100.00;68183.13;5023255;28;20045;-79
2022/05/17 03:44:04;;;;;;;24.88;15.25;;;;;;;12.69;100.00;68182.88;5021226;28;20041;-79
2022/05/17 03:46:29;;;;;;;22.02;14.85;;;;;;;12.70;100.00;68184.03;5023127;28;20068;-79
2022/05/17 03:48:55;;;;;;;23.65;14.00;;;;;;;12.73;100.00;68188.00;5021910;28;20050;-79
2022/05/17 03:51:20;;;;;;;24.50;15.10;;;;;;;12.77;100.00;68191.97;5023235;28;20040;-80
2022/05/17 03:53:48;;;;;;;25.88;16.40;;;;;;;12.85;100.00;68201.66;5022567;28;22605;-79
2022/05/17 03:56:14;;;;;;;24.10;15.00;;;;;;;12.91;100.00;68207.91;5026748;28;20453;-80
2022/05/17 03:58:39;;;;;;;25.25;14.18;;;;;;;;;;5025847;28;20049;-80
2022/05/17 04:01:05;;;;;;;19.92;15.07;;;;;;;12.97;100.00;68214.16;5026205;28;20041;-79
2022/05/17 04:03:31;;;;;;;24.73;14.48;;;;;;;12.95;100.00;68206.56;5025998;28;20506;-79
2022/05/17 04:05:56;;;;;;;25.75;15.10;;;;;;;12.98;100.00;68215.31;5024242;28;20033;-79
2022/05/17 04:08:22;;;;;;;20.15;14.15;;;;;;;13.02;100.00;68219.84;5022231;28;20037;-79
2022/05/17 04:10:47;;;;;;;24.10;14.82;;;;;;;13.02;100.00;68220.41;5023235;28;20491;-79
2022/05/17 04:13:13;;;;;;;24.88;16.45;;;;;;;13.07;100.00;68225.53;5024305;28;20102;-79
2022/05/17 04:15:38;;;;;;;23.13;15.35;;;;;;;13.08;100.00;68229.34;5028350;28;20140;-78
2022/05/17 04:18:04;;;;;;;24.70;15.82;;;;;;;13.09;100.00;68227.81;5033433;28;20045;-79
2022/05/17 04:20:31;;;;;;;23.17;15.25;;;;;;;13.13;100.00;68231.78;5025968;28;20115;-80
2022/05/17 04:22:56;;;;;;;21.70;14.98;;;;;;;13.15;100.00;68239.97;5029396;28;20052;-79
2022/05/17 04:25:24;;;;;;;21.67;14.90;;;;;;;13.19;100.00;68238.63;5026266;28;20518;-79
2022/05/17 04:27:49;;;;;;;25.35;16.20;;;;;;;13.23;100.00;68245.81;5030172;28;20120;-79
2022/05/17 04:30:16;;;;;;;24.25;16.17;;;;;;;13.31;100.00;68254.94;5025685;28;20613;-80
2022/05/17 04:32:42;;;;;;;24.95;16.10;;;;;;;13.36;100.00;68260.63;5030464;28;20437;-79
2022/05/17 04:35:08;;;;;;;23.67;16.27;;;;;;;13.43;100.00;68265.91;5031796;28;20069;-79
2022/05/17 04:37:33;;;;;;;24.52;16.35;;;;;;;13.54;100.00;68277.88;5033214;28;20060;-79
2022/05/17 04:39:59;;;;;;;23.98;16.63;;;;;;;13.60;100.00;68284.69;5032688;28;20041;-79
2022/05/17 04:42:24;;;;;;;26.17;16.58;;;;;;;13.67;100.00;68294.78;5034183;28;20104;-79
2022/05/17 04:44:50;;;;;;;26.90;15.32;;;;;;;13.72;100.00;68303.72;5033449;28;20513;-79
2022/05/17 04:47:16;;;;;;;27.95;16.48;;;;;;;13.77;100.00;68306.72;5033833;28;20537;-79
2022/05/17 04:49:41;;;;;;;23.20;16.15;;;;;;;13.88;100.00;68318.09;5029138;28;20103;-79
2022/05/17 04:52:06;;;;;;;27.15;15.57;;;;;;;;;;5033284;28;20052;-79
2022/05/17 04:54:32;;;;;;;21.13;14.85;;;;;;;14.05;100.00;68336.88;5032858;28;20049;-80
2022/05/17 04:56:58;;;;;;;22.45;14.85;;;;;;;14.11;100.00;68341.03;5031812;28;20518;-79
2022/05/17 04:59:23;;;;;;;23.15;15.40;;;;;;;14.22;100.00;68356.78;5031570;28;20478;-80
2022/05/17 05:01:48;;;;;;;23.83;14.38;;;;;;;14.28;100.00;68359.81;5027872;28;20107;-80
2022/05/17 05:04:14;;;;;;;24.73;15.02;;;;;;;;;;5031156;28;20124;-80
2022/05/17 05:06:39;;;;;;;22.02;13.63;;;;;;;14.39;100.00;68372.34;5029600;28;20072;-80
2022/05/17 05:09:05;;;;;;;23.88;15.23;;;;;;;14.45;100.00;68379.16;5027067;28;20133;-80
2022/05/17 05:11:30;;;;;;;19.70;15.43;;;;;;;;;;5029220;28;20109;-79
2022/05/17 05:13:56;;;;;;;22.13;14.77;;;;;;;14.57;100.00;68392.84;5033926;28;20046;-79
2022/05/17 05:16:21;;;;;;;25.05;16.00;;;;;;;14.68;100.00;68404.22;5025449;28;20093;-79
2022/05/17 05:18:47;;;;;;;24.92;14.57;;;;;;;14.75;100.00;68412.75;5029695;28;20562;-78
2022/05/17 05:21:14;;;;;;;22.70;14.93;;;;;;;14.80;100.00;68418.44;5046279;28;20065;-79
2022/05/17 05:23:41;;;;;;;22.75;14.32;;;;;;;14.88;100.00;68427.00;5030267;28;20065;-78
2022/05/17 05:26:08;;;;;;;22.25;14.63;;;;;;;14.91;100.00;68430.41;5026247;28;20044;-78
2022/05/17 05:28:34;;;;;;;21.95;14.43;;;;;;;14.95;100.00;68434.97;5027491;28;20041;-78
2022/05/17 05:31:00;;;;;;;20.30;14.52;;;;;;;14.99;100.00;68444.88;5043767;28;20054;-79
2022/05/17 05:33:26;;;;;;;20.98;14.30;;;;;;;15.05;100.00;68446.34;5029210;28;20038;-79
2022/05/17 05:35:52;;;;;;;23.67;14.07;;;;;;;15.07;100.00;68442.69;5025888;28;20500;-79
2022/05/17 05:38:18;;;;;;;26.17;14.23;;;;;;;15.10;100.00;68454.75;5022989;28;20666;-79
2022/05/17 05:40:44;;;;;;;20.38;14.88;;;;;;;15.12;100.00;68453.75;5023222;28;20041;-78
2022/05/17 05:43:10;;;;;;;17.63;13.80;;;;;;;15.14;100.00;68455.47;5027879;28;20041;-78
2022/05/17 05:45:35;;;;;;;20.67;14.32;;;;;;;15.21;100.00;68463.44;5024205;28;20576;-78
2022/05/17 05:48:01;;;;;;;22.02;14.10;;;;;;;15.25;100.00;68468.00;5025087;28;20060;-79
2022/05/17 05:50:26;;;;;;;22.02;15.05;;;;;;;;;;5026111;28;20076;-79
2022/05/17 05:52:59;;;;;;;20.80;13.60;;;;;;;15.34;100.00;68478.25;5024989;28;20065;-79
2022/05/17 05:55:24;;;;;;;22.95;14.65;;;;;;;15.38;100.00;68476.88;5026996;28;21059;-79
2022/05/17 05:57:50;;;;;;;21.75;14.35;;;;;;;15.44;100.00;68491.75;5025229;28;20191;-79
2022/05/17 06:00:17;;;;;;;19.38;13.38;;;;;;;15.47;100.00;68493.06;5027570;28;20036;-80
2022/05/17 06:02:43;;;;;;;22.02;13.90;;;;;;;15.53;100.00;68499.31;5024671;28;20053;-80
2022/05/17 06:05:09;;;;;;;23.60;14.55;;;;;;;;;;5025501;28;20036;-80
2022/05/17 06:07:35;;;;;;;22.15;13.50;;;;;;;15.70;100.00;68520.81;5025307;28;20046;-80
2022/05/17 06:10:01;;;;;;;21.42;12.95;;;;;;;;;;5024208;28;20045;-79
2022/05/17 06:12:26;;;;;;;19.67;12.57;;;;;;;15.73;99.74;68522.13;5028326;28;20047;-80
2022/05/17 06:14:51;;;;;;;20.02;13.50;;;;;;;;;;5030988;28;20045;-80
2022/05/17 06:17:18;;;;;;;22.77;12.98;;;;;;;15.80;98.84;68529.53;5028015;28;20049;-80
2022/05/17 06:19:43;;;;;;;22.70;12.85;;;;;;;15.87;98.55;68531.59;5026897;28;20457;-79
2022/05/17 06:22:09;;;;;;;21.05;13.75;;;;;;;15.92;98.49;68543.22;5027015;28;20095;-80
2022/05/17 06:24:35;;;;;;;18.98;12.30;;;;;;;15.96;97.82;68547.78;5029906;28;20068;-79
2022/05/17 06:27:00;;;;;;;15.45;11.80;;;;;;;;;;5031218;28;20422;-79
2022/05/17 06:29:26;;;;;;;19.70;12.25;;;;;;;;;;5030527;28;20042;-79
2022/05/17 06:31:52;;;;;;;18.40;12.88;;;;;;;16.11;98.56;68563.72;5027830;28;20126;-78
2022/05/17 06:34:26;;;;;;;18.52;13.50;;;;;;;;;;5036360;28;20048;-80
2022/05/17 06:37:05;;;;;;;21.83;15.30;;;;;;;16.14;97.96;68567.72;5060570;28;20040;-80
2022/05/17 06:39:57;;;;;;;18.55;12.75;;;;;;;16.19;97.99;68568.03;5033405;28;20108;-80
2022/05/17 06:42:22;;;;;;;17.45;12.05;;;;;;;;;;5006586;28;20143;-81
2022/05/17 06:44:48;;;;;;;20.95;11.77;;;;;;;16.36;97.34;68586.84;5020902;28;20128;-80
2022/05/17 06:47:13;;;;;;;18.83;10.65;;;;;;;16.38;95.64;68594.50;5015703;28;20567;-78
2022/05/17 06:49:41;;;;;;;15.63;10.88;;;;;;;16.52;95.56;68612.03;5015966;28;20140;-79
2022/05/17 06:52:08;;;;;;;15.13;9.55;;;;;;;16.58;93.41;68616.19;5025543;28;20387;-80
2022/05/17 06:54:34;;;;;;;18.05;9.88;;;;;;;16.65;92.90;68618.78;5012563;28;20284;-80
2022/05/17 06:57:06;;;;;;;16.58;9.73;;;;;;;16.72;92.61;68631.59;5016102;28;20104;-80
2022/05/17 06:59:34;;;;;;;14.23;9.35;;;;;;;16.82;91.93;68643.00;5014938;28;20076;-79
2022/05/17 07:02:00;;;;;;;14.43;9.20;;;;;;;16.85;92.23;68646.41;5008377;28;20111;-81
2022/05/17 07:04:29;;;;;;;17.15;9.38;;;;;;;16.85;91.98;68646.97;5020052;28;20129;-80
2022/05/17 07:06:58;;;;;;;17.50;9.68;;;;;;;16.89;91.77;68645.63;5010088;28;20142;-80
2022/05/17 07:09:24;;;;;;;17.27;9.73;;;;;;;16.94;91.83;68656.09;5021032;28;20765;-80
2022/05/17 07:14:37;;;;;;;17.42;8.93;;;;;;;16.97;91.02;68654.72;5078261;28;20043;-80
2022/05/17 07:17:06;;;;;;;13.85;7.95;;;;;;;17.01;90.15;68664.66;5074362;28;20088;-79
2022/05/17 07:19:32;;;;;;;14.50;7.40;;;;;;;;;;5077036;28;20038;-79
2022/05/17 07:21:59;;;;;;;12.27;7.80;;;;;;;17.13;88.44;68672.41;5036849;28;20511;-81
2022/05/17 07:24:24;;;;;;;13.82;8.70;;;;;;;;;;5028714;28;20072;-80
2022/05/17 07:26:49;;;;;;;13.30;8.07;;;;;;;;;;5042963;28;20053;-80
2022/05/17 07:29:14;;;;;;;16.02;8.23;;;;;;;;;;5027874;28;20304;-80
2022/05/17 07:31:40;;;;;;;14.57;8.53;;;;;;;17.24;88.73;68690.34;5026565;28;20038;-80
2022/05/17 07:34:05;;;;;;;17.70;8.35;;;;;;;17.27;88.94;68693.19;5024036;28;20046;-80
2022/05/17 07:36:31;;;;;;;12.27;8.43;;;;;;;17.34;90.05;68704.44;5028730;28;20453;-81
2022/05/17 07:38:57;;;;;;;15.27;8.38;;;;;;;;;;5041684;28;20120;-80
2022/05/17 07:41:23;;;;;;;13.38;8.35;;;;;;;;;;5028992;28;20037;-80
2022/05/17 07:43:48;;;;;;;12.65;7.85;;;;;;;;;;5026553;28;20505;-81
2022/05/17 07:46:14;;;;;;;16.90;8.27;;;;;;;17.46;87.27;68714.28;5029676;28;20041;-80
2022/05/17 07:48:39;;;;;;;13.63;7.90;;;;;;;;;;5028047;28;20176;-81
2022/05/17 07:51:06;;;;;;;13.77;8.03;;;;;;;17.52;86.94;68721.13;5029958;28;20061;-80
2022/05/17 07:53:32;;;;;;;13.15;6.75;;;;;;;17.53;84.86;68722.28;5028160;28;20276;-80
2022/05/17 07:55:57;;;;;;;12.55;7.38;;;;;;;17.56;84.80;68726.28;5026246;28;20103;-82
2022/05/17 07:58:24;;;;;;;13.85;7.10;;;;;;;17.58;84.42;68723.19;5027236;28;20675;-80
2022/05/17 08:00:49;;;;;;;11.95;7.82;;;;;;;;;;5040376;28;20033;-79
2022/05/17 08:03:18;;;;;;;12.80;6.72;;;;;;;17.63;83.13;68727.72;5026990;28;20687;-79
2022/05/17 08:05:44;;;;;;;11.00;7.20;;;;;;;17.57;83.25;68722.03;5025404;28;20044;-81
2022/05/17 08:08:09;;;;;;;14.05;6.80;;;;;;;;;;5025927;28;20042;-80
2022/05/17 08:10:34;;;;;;;12.47;6.97;;;;;;;17.59;83.20;68729.13;5026420;28;20047;-80
2022/05/17 08:13:00;;;;;;;16.25;6.82;;;;;;;;;;5020613;28;20344;-81
2022/05/17 08:15:27;;;;;;;12.33;7.03;;;;;;;17.57;81.75;68726.84;5022874;28;20047;-80
2022/05/17 08:17:53;;;;;;;11.77;6.50;;;;;;;17.60;82.41;68724.88;5022902;28;20256;-80
2022/05/17 08:20:18;;;;;;;12.45;6.97;;;;;;;17.72;83.07;68738.59;5024840;28;20091;-80
2022/05/17 08:22:44;;;;;;;13.98;7.18;;;;;;;;;;5026774;28;20056;-81
2022/05/17 08:27:55;;;;;;;14.10;6.55;;;;;;;;;;5024864;28;20080;-80
2022/05/17 08:30:22;;;;;;;11.98;6.75;;;;;;;;;;5037930;28;20112;-81
2022/05/17 08:33:16;;;;;;;13.48;7.10;;;;;;;;;;5024402;28;20049;-81
2022/05/17 08:35:57;;;;;;;15.48;7.05;;;;;;;17.90;81.92;68758.00;5025966;28;20076;-79
2022/05/17 08:38:41;;;;;;;10.98;6.03;;;;;;;17.94;81.71;68767.94;5021078;28;20042;-80
2022/05/17 08:41:12;;;;;;;12.07;5.93;;;;;;;17.96;80.64;68772.94;5024049;28;20421;-80
2022/05/17 08:43:53;;;;;;;11.57;6.40;;;;;;;18.04;80.79;68774.00;5022703;28;20168;-80
2022/05/17 08:46:27;;;;;;;10.82;4.75;;;;;;;18.07;78.07;68782.81;5022223;28;20104;-81
2022/05/17 08:48:59;;;;;;;10.40;5.18;;;;;;;18.09;77.80;68779.13;5022595;28;20046;-81
2022/05/17 08:51:48;;;;;;;10.10;3.85;;;;;;;18.18;77.73;68795.38;5018524;28;20066;-81
2022/05/17 08:54:15;;;;;;;7.45;3.60;;;;;;;;;;5012287;28;20041;-80
2022/05/17 08:56:51;;;;;;;6.30;2.90;;;;;;;18.19;74.96;68790.53;5020582;28;20076;-80
2022/05/17 08:59:21;;;;;;;8.18;2.30;;;;;;;18.13;73.25;68789.66;5024749;28;20037;-79
2022/05/17 09:01:55;;;;;;;9.90;2.42;;;;;;;18.08;72.92;68778.53;5026321;28;20051;-79
2022/05/17 09:04:21;;;;;;;6.57;2.35;;;;;;;;;;5027067;28;20053;-79
2022/05/17 09:07:11;;;;;;;8.75;2.80;;;;;;;18.17;73.04;68788.25;5025423;28;20055;-79
2022/05/17 09:09:39;;;;;;;8.73;3.28;;;;;;;;;;5027572;28;20045;-80
2022/05/17 09:12:16;;;;;;;10.20;2.77;;;;;;;;;;5030317;28;20049;-79
2022/05/17 09:14:44;;;;;;;8.05;2.80;;;;;;;;;;5026499;28;20056;-79
2022/05/17 09:17:15;;;;;;;10.20;2.75;;;;;;;18.29;72.86;68806.75;5028233;28;20047;-79
2022/05/17 09:19:40;;;;;;;11.02;2.80;;;;;;;18.22;71.96;68794.53;5027751;28;20037;-79
2022/05/17 09:22:06;;;;;;;6.28;2.40;;;;;;;18.28;72.62;68800.81;5029129;28;20836;-80
2022/05/17 09:24:37;;;;;;;10.35;2.80;;;;;;;;;;5028650;28;20038;-80
2022/05/17 09:27:07;;;;;;;8.30;2.83;;;;;;;;;;5028397;28;20045;-80
2022/05/17 09:29:44;;;;;;;7.90;2.95;;;;;;;18.22;73.06;68794.53;5028271;28;20037;-79
2022/05/17 09:32:11;;;;;;;10.40;3.08;;;;;;;18.14;72.48;68790.78;5027660;28;20571;-79
2022/05/17 09:34:45;;;;;;;8.77;3.10;;;;;;;18.17;73.51;68788.25;5024568;28;20049;-80
2022/05/17 09:37:20;;;;;;;8.35;3.17;;;;;;;18.35;73.80;68808.22;5030685;28;20046;-80
2022/05/17 09:39:51;;;;;;;12.05;3.58;;;;;;;18.33;72.04;68805.97;5026432;28;20071;-79
2022/05/17 09:42:20;;;;;;;9.60;4.10;;;;;;;;;;5027572;28;20041;-80
2022/05/17 09:44:46;;;;;;;10.40;3.10;;;;;;;18.41;73.64;68821.06;5028432;28;20116;-80
2022/05/17 09:47:21;;;;;;;8.45;3.35;;;;;;;;;;5028524;28;20045;-80
2022/05/17 09:55:09;;;;;;;10.17;3.63;;;;;;;18.47;71.30;68827.91;5027026;28;20046;-80
2022/05/17 09:57:36;;;;;;;8.10;3.42;;;;;;;18.46;71.61;68821.34;5027281;28;20045;-80
2022/05/17 10:00:12;;;;;;;11.15;4.00;;;;;;;18.57;71.26;68838.75;5024568;28;20088;-80
2022/05/17 10:03:01;;;;;;;8.20;3.38;;;;;;;18.74;71.75;68857.03;5042416;28;20067;-79
2022/05/17 10:05:30;;;;;;;9.13;3.85;;;;;;;18.80;71.93;68859.06;5027059;28;20040;-80
2022/05/17 10:08:27;;;;;;;10.38;3.75;;;;;;;18.93;72.48;68873.34;5023273;28;20618;-80
2022/05/17 10:11:04;;;;;;;8.45;3.30;;;;;;;18.80;70.43;68864.47;5023757;28;20038;-80
2022/05/17 10:13:51;;;;;;;9.07;3.70;;;;;;;18.90;71.38;68870.50;5029249;28;20425;-80
2022/05/17 10:16:24;;;;;;;10.23;3.58;;;;;;;18.83;70.30;68859.22;5029944;28;20049;-80
2022/05/17 10:18:55;;;;;;;9.82;4.13;;;;;;;18.78;70.63;68856.78;5024397;28;20673;-80
2022/05/17 10:21:27;;;;;;;9.95;3.58;;;;;;;18.78;71.19;68862.16;5023570;28;20114;-80
2022/05/17 10:23:58;;;;;;;10.23;3.75;;;;;;;;;;5023137;28;20096;-80
2022/05/17 10:26:39;;;;;;;11.45;3.92;;;;;;;18.84;71.68;68860.34;5023308;28;20045;-81
2022/05/17 10:29:31;;;;;;;10.30;3.50;;;;;;;18.81;71.42;68860.19;5020641;28;20045;-81
2022/05/17 10:32:08;;;;;;;12.07;4.05;;;;;;;;;;5027774;28;20389;-80
2022/05/17 10:34:49;;;;;;;7.60;3.05;;;;;;;18.84;71.95;68863.06;5028053;28;20038;-80
2022/05/17 10:37:27;;;;;;;10.98;3.88;;;;;;;18.90;72.19;68869.91;4996362;28;20398;-81
2022/05/17 10:40:07;;;;;;;9.50;3.78;;;;;;;18.94;71.28;68874.50;5045190;28;20038;-80
2022/05/17 10:42:33;;;;;;;10.85;3.78;;;;;;;18.88;70.52;68867.63;5028768;28;20521;-80
2022/05/17 10:44:59;;;;;;;11.07;4.25;;;;;;;18.88;70.90;68867.63;5025980;28;20045;-80
2022/05/17 10:47:39;;;;;;;9.93;3.38;;;;;;;18.88;70.67;68873.03;5028194;28;20040;-80
2022/05/17 10:50:21;;;;;;;11.30;3.65;;;;;;;18.94;70.81;68874.50;5023275;28;20560;-81
2022/05/17 10:52:54;;;;;;;9.30;3.50;;;;;;;19.12;70.28;68891.78;5028309;28;20053;-81
2022/05/17 10:55:22;;;;;;;11.13;3.75;;;;;;;19.27;71.31;68908.91;5023654;28;20124;-80
2022/05/17 10:57:54;;;;;;;9.60;3.35;;;;;;;19.35;69.70;68926.16;5048949;22;20046;-86
2022/05/17 11:00:22;;;;;;;9.90;3.58;;;;;;;;;;5011648;28;20037;-86
2022/05/17 11:03:10;;;;;;;9.27;4.38;;;;;;;;;;5017484;28;20057;-86
2022/05/17 11:06:02;;;;;;;9.10;3.92;;;;;;;19.45;71.30;68931.63;5015542;28;20042;-87
2022/05/17 11:08:52;;;;;;;7.47;3.58;;;;;;;19.28;68.94;68912.19;5001648;28;20234;-87
2022/05/17 11:11:20;;;;;;;7.00;3.58;;;;;;;;;;5015351;28;20060;-87
2022/05/17 11:13:58;;;;;;;12.60;3.90;;;;;;;;;;5017323;28;20441;-87
2022/05/17 11:16:29;;;;;;;10.80;3.40;;;;;;;;;;5014283;28;20284;-87
2022/05/17 11:19:13;;;;;;;8.43;3.17;;;;;;;19.63;69.52;68957.00;5019117;28;20041;-88
2022/05/17 11:22:01;;;;;;;9.98;3.88;;;;;;;;;;5022152;28;20045;-87
2022/05/17 11:24:58;;;;;;;7.93;3.20;;;;;;;19.83;71.26;68974.47;5012897;28;20096;-88
2022/05/17 11:27:54;;;;;;;8.77;3.47;;;;;;;19.90;69.97;68981.34;4995215;28;20051;-89
2022/05/17 11:30:28;;;;;;;6.80;3.15;;;;;;;20.03;69.38;68996.22;4972409;28;20038;-87
2022/05/17 11:33:11;;;;;;;8.57;3.65;;;;;;;20.09;68.53;69002.50;4949110;28;20049;-87
2022/05/17 11:35:46;;;;;;;10.18;3.85;;;;;;;20.05;69.14;69003.88;4982427;28;20313;-88
2022/05/17 11:38:16;;;;;;;10.05;4.80;;;;;;;;;;4950211;28;20101;-88
2022/05/17 11:40:49;;;;;;;10.00;3.97;;;;;;;;;;4967153;28;20086;-87
2022/05/17 11:43:41;;;;;;;9.23;3.90;;;;;;;20.05;67.11;69004.47;4983456;28;20060;-87
2022/05/17 11:46:24;;;;;;;12.05;4.45;;;;;;;19.87;67.40;68973.06;4981770;28;20132;-87
2022/05/17 11:48:53;;;;;;;10.50;3.80;;;;;;;20.08;68.67;69001.34;4962827;28;20065;-88
2022/05/17 11:51:21;;;;;;;10.40;3.88;;;;;;;20.26;68.09;69016.53;4955031;28;20047;-87
2022/05/17 11:53:51;;;;;;;12.63;4.22;;;;;;;20.64;69.16;69070.25;4943283;28;20050;-87
2022/05/17 11:56:26;;;;;;;13.10;4.07;;;;;;;20.95;67.77;69099.16;4965895;28;20065;-87
2022/05/17 11:58:52;;;;;;;8.65;3.50;;;;;;;21.16;66.83;69122.59;5009811;28;20042;-87
2022/05/17 12:01:30;;;;;;;10.52;4.28;;;;;;;21.20;65.75;69124.44;5046070;28;20022;-89
2022/05/17 12:04:07;;;;;;;14.07;4.78;;;;;;;21.07;65.77;69112.88;5012540;28;20249;-87
2022/05/17 12:07:05;;;;;;;11.50;4.37;;;;;;;;;;5012690;28;20051;-87